Time;durP1;ratioP1;P1;durP2;ratioP2;P2;SDS_P1;SDS_P2;PMS_P1;PMS_P2;Temp;Humidity;BMP_temperature;BMP_pressure;BME280_temperature;BME280_humidity;BME280_pressure;Samples;Min_cycle;Max_cycle;Signal;HPM_P1;HPM_P2
2022/04/22 00:01:16;;;;;;;2.67;1.40;;;;;;;19.52;53.79;99063.03;5095198;28;20181;-61
2022/04/22 00:03:42;;;;;;;2.93;1.77;;;;;;;19.52;54.15;99068.75;5095318;28;20170;-62
2022/04/22 00:06:07;;;;;;;1.80;1.47;;;;;;;19.51;53.93;99060.59;5095264;28;20157;-61
2022/04/22 00:08:33;;;;;;;3.70;1.50;;;;;;;19.54;53.64;99057.72;5095040;28;20271;-61
2022/04/22 00:13:43;;;;;;;3.03;1.30;;;;;;;19.52;54.10;99053.63;5095371;28;20880;-62
2022/04/22 00:16:08;;;;;;;2.87;1.50;;;;;;;19.54;54.23;99060.56;5093633;28;20460;-62
2022/04/22 00:18:34;;;;;;;2.90;1.60;;;;;;;19.51;53.87;99049.94;5094032;28;20904;-61
2022/04/22 00:20:59;;;;;;;2.10;1.40;;;;;;;19.50;53.96;99048.31;5094882;28;20718;-61
2022/04/22 00:23:28;;;;;;;1.97;1.30;;;;;;;19.51;54.08;99049.94;5092881;28;20174;-61
2022/04/22 00:25:54;;;;;;;2.07;1.47;;;;;;;19.51;54.03;99047.09;5074498;28;20182;-61
2022/04/22 00:28:20;;;;;;;3.00;1.50;;;;;;;19.53;54.44;99050.38;5056621;28;20425;-61
2022/04/22 00:30:46;;;;;;;2.00;1.30;;;;;;;19.51;54.10;99047.09;5090175;28;20428;-61
2022/04/22 00:33:11;;;;;;;2.30;1.40;;;;;;;19.50;54.70;99038.91;5094868;28;20289;-61
2022/04/22 00:35:36;;;;;;;2.70;1.47;;;;;;;19.49;54.37;99040.97;5094607;28;20553;-61
2022/04/22 00:38:02;;;;;;;5.40;1.40;;;;;;;19.50;54.15;99033.19;5094315;28;20174;-61
2022/04/22 00:40:27;;;;;;;3.43;1.40;;;;;;;19.50;54.27;99036.88;5094599;28;20170;-61
2022/04/22 00:42:53;;;;;;;2.23;1.37;;;;;;;19.52;53.98;99031.53;5093843;28;20171;-62
2022/04/22 00:45:19;;;;;;;3.77;1.70;;;;;;;19.51;54.12;99032.78;5094192;28;20177;-62
2022/04/22 00:47:45;;;;;;;3.83;1.53;;;;;;;19.51;54.65;99035.63;5094424;28;20256;-62
2022/04/22 00:50:11;;;;;;;2.80;1.60;;;;;;;19.49;54.50;99026.66;5094482;28;20412;-61
2022/04/22 00:52:37;;;;;;;2.37;1.70;;;;;;;19.49;54.38;99020.94;5075657;28;20486;-61
2022/04/22 00:55:03;;;;;;;3.27;1.60;;;;;;;19.50;54.49;99024.59;5060717;28;20203;-62
2022/04/22 00:57:28;;;;;;;2.57;1.30;;;;;;;19.48;54.26;99019.31;5093894;28;20618;-61
2022/04/22 00:59:54;;;;;;;2.30;1.57;;;;;;;19.48;54.66;99024.22;5094170;28;20228;-61
2022/04/22 01:02:19;;;;;;;2.13;1.30;;;;;;;19.48;54.42;99016.47;5093844;28;20728;-61
2022/04/22 01:10:13;;;;;;;2.30;1.50;;;;;;;19.51;54.32;99027.06;5073780;28;20462;-61
2022/04/22 01:12:38;;;;;;;2.20;1.63;;;;;;;19.49;54.38;99022.97;5087761;28;20824;-61
2022/04/22 01:15:04;;;;;;;2.40;1.70;;;;;;;19.49;54.50;99008.66;5093713;28;20217;-62
2022/04/22 01:17:29;;;;;;;2.57;1.53;;;;;;;19.48;54.68;99007.88;5093631;28;20201;-61
2022/04/22 01:19:55;;;;;;;2.10;1.30;;;;;;;19.48;54.61;98998.44;5093783;28;20526;-61
2022/04/22 01:22:21;;;;;;;3.00;1.60;;;;;;;19.47;54.70;98991.09;5092019;28;20247;-61
2022/04/22 01:24:49;;;;;;;2.27;1.37;;;;;;;19.46;54.38;98987.41;5088792;28;20171;-61
2022/04/22 01:27:14;;;;;;;2.10;1.30;;;;;;;19.44;54.27;98978.44;5072252;28;20478;-61
2022/04/22 01:29:39;;;;;;;1.80;1.23;;;;;;;19.47;54.49;98994.75;5073685;28;20448;-61
2022/04/22 01:32:05;;;;;;;2.80;1.70;;;;;;;19.48;54.57;98982.09;5093344;28;20220;-61
2022/04/22 01:34:32;;;;;;;2.60;1.50;;;;;;;19.47;54.53;98988.25;5093455;28;20194;-62
2022/04/22 01:36:57;;;;;;;2.10;1.60;;;;;;;19.45;54.64;98977.22;5075412;28;20424;-61
2022/04/22 01:39:24;;;;;;;2.07;1.27;;;;;;;19.46;54.44;98980.91;5093348;28;20413;-61
2022/04/22 01:41:49;;;;;;;2.43;1.37;;;;;;;19.47;54.55;98983.31;5093117;28;20771;-62
2022/04/22 01:44:14;;;;;;;2.10;1.53;;;;;;;19.47;54.58;98976.78;5093247;28;20440;-62
2022/04/22 01:46:40;;;;;;;2.37;1.60;;;;;;;19.46;54.86;98975.97;5092273;28;20602;-61
2022/04/22 01:49:06;;;;;;;2.37;1.53;;;;;;;19.47;54.62;98971.88;5091907;28;20170;-61
2022/04/22 01:51:31;;;;;;;2.47;1.30;;;;;;;19.45;54.52;98965.75;5091944;28;20583;-61
2022/04/22 01:53:56;;;;;;;2.17;1.43;;;;;;;19.45;54.61;98968.63;5091517;28;20193;-61
2022/04/22 01:56:22;;;;;;;2.00;1.30;;;;;;;19.43;54.76;98961.69;5091621;28;20201;-62
2022/04/22 01:58:47;;;;;;;2.63;1.57;;;;;;;19.43;55.10;98971.09;5091268;28;20766;-62
2022/04/22 02:01:13;;;;;;;3.00;1.60;;;;;;;19.43;54.86;98964.56;5091629;28;20177;-61
2022/04/22 02:03:38;;;;;;;2.40;1.20;;;;;;;19.44;54.47;98967.00;5093033;28;20193;-61
2022/04/22 02:06:04;;;;;;;2.00;1.40;;;;;;;19.44;54.82;98966.16;5092783;28;20166;-61
2022/04/22 02:08:36;;;;;;;2.63;1.80;;;;;;;19.44;54.86;98971.91;5092977;28;20253;-62
2022/04/22 02:11:02;;;;;;;1.70;1.20;;;;;;;19.43;54.57;98965.38;5092563;28;20181;-62
2022/04/22 02:13:27;;;;;;;2.57;1.20;;;;;;;19.43;54.68;98958.81;5093003;28;20484;-62
2022/04/22 02:15:53;;;;;;;1.90;1.30;;;;;;;19.43;54.47;98964.56;5092250;28;20452;-62
2022/04/22 02:18:18;;;;;;;2.03;1.20;;;;;;;19.43;54.92;98958.81;5092791;28;20295;-61
2022/04/22 02:20:44;;;;;;;2.47;1.40;;;;;;;19.45;54.56;98962.06;5092488;28;20186;-61
2022/04/22 02:23:10;;;;;;;2.10;1.40;;;;;;;19.43;54.47;98953.09;5092441;28;20166;-61
2022/04/22 02:25:35;;;;;;;2.90;1.47;;;;;;;19.41;55.05;98962.09;5072238;28;20409;-61
2022/04/22 02:30:45;;;;;;;2.10;1.30;;;;;;;19.41;54.84;98944.13;5092576;28;20764;-61
2022/04/22 02:33:11;;;;;;;2.30;1.30;;;;;;;19.44;54.67;98954.72;5092375;28;20401;-61
2022/04/22 02:35:36;;;;;;;2.37;1.50;;;;;;;19.43;54.68;98944.50;5092224;28;20571;-61
2022/04/22 02:38:02;;;;;;;1.80;1.20;;;;;;;19.42;54.98;98948.63;5074069;28;20428;-62
2022/04/22 02:45:55;;;;;;;2.10;1.10;;;;;;;19.40;55.21;98937.59;5092069;28;20464;-61
2022/04/22 02:48:21;;;;;;;2.10;1.50;;;;;;;19.41;55.05;98939.19;5057373;28;20829;-61
2022/04/22 02:50:47;;;;;;;2.00;1.20;;;;;;;19.42;55.00;98934.31;5092282;28;20182;-61
2022/04/22 02:53:12;;;;;;;2.27;1.13;;;;;;;19.41;54.63;98932.69;5080286;28;20504;-61
2022/04/22 02:55:40;;;;;;;1.87;1.20;;;;;;;19.40;54.59;98931.84;5091938;28;20628;-61
2022/04/22 02:58:06;;;;;;;1.93;1.23;;;;;;;19.41;55.26;98933.47;5092193;28;20594;-61
2022/04/22 03:00:31;;;;;;;1.90;1.20;;;;;;;19.41;54.59;98926.97;5091858;28;20420;-61
2022/04/22 03:02:57;;;;;;;2.10;1.43;;;;;;;19.41;54.87;98922.03;5088486;28;20926;-62
2022/04/22 03:05:22;;;;;;;2.07;1.47;;;;;;;19.40;54.72;98913.84;5091816;28;20170;-61
2022/04/22 03:07:47;;;;;;;1.90;1.20;;;;;;;19.39;54.71;98918.78;5090800;28;20218;-61
2022/04/22 03:10:13;;;;;;;2.03;1.20;;;;;;;19.39;54.99;98913.06;5091242;28;20174;-61
2022/04/22 03:12:38;;;;;;;2.17;1.30;;;;;;;19.39;54.81;98918.78;5091852;28;20536;-61
2022/04/22 03:15:05;;;;;;;2.10;1.20;;;;;;;19.39;54.78;98915.94;5091643;28;20186;-61
2022/04/22 03:17:30;;;;;;;2.20;1.20;;;;;;;19.39;54.74;98913.06;5091633;28;20175;-61
2022/04/22 03:19:55;;;;;;;1.83;1.20;;;;;;;19.38;55.06;98911.44;5091607;28;20825;-61
2022/04/22 03:22:21;;;;;;;2.43;1.70;;;;;;;19.38;54.95;98911.44;5091746;28;20644;-61
2022/04/22 03:24:46;;;;;;;2.37;1.50;;;;;;;19.38;55.13;98916.34;5077640;28;20650;-61
2022/04/22 03:27:12;;;;;;;1.83;1.10;;;;;;;19.38;54.98;98916.34;5053439;28;20179;-61
2022/04/22 03:29:38;;;;;;;1.90;1.20;;;;;;;19.37;54.84;98909.78;5071511;28;20155;-61
2022/04/22 03:32:05;;;;;;;2.27;1.30;;;;;;;19.39;54.89;98918.78;5072872;28;20187;-61
2022/04/22 03:34:30;;;;;;;2.60;1.47;;;;;;;19.36;54.80;98913.09;5070074;28;20925;-61
2022/04/22 03:36:55;;;;;;;2.17;1.00;;;;;;;19.37;54.79;98918.38;5069890;28;20439;-61
2022/04/22 03:39:21;;;;;;;2.70;1.30;;;;;;;19.36;54.91;98918.81;5069604;28;20232;-61
2022/04/22 03:41:46;;;;;;;2.40;1.50;;;;;;;19.38;55.24;98922.88;5069845;28;20240;-61
2022/04/22 03:44:12;;;;;;;1.80;1.30;;;;;;;19.37;55.21;98921.22;5069875;28;20578;-61
2022/04/22 03:46:37;;;;;;;2.10;1.27;;;;;;;19.37;54.89;98920.44;5079871;28;20220;-62
2022/04/22 03:49:04;;;;;;;2.17;1.33;;;;;;;19.37;55.12;98918.38;5091439;28;20224;-61
2022/04/22 03:51:30;;;;;;;2.53;1.47;;;;;;;19.36;54.84;98918.81;5091414;28;20202;-62
2022/04/22 03:53:55;;;;;;;2.33;1.30;;;;;;;19.37;54.79;98918.38;5091034;28;20517;-61
2022/04/22 03:59:06;;;;;;;2.83;1.00;;;;;;;19.38;54.79;98916.34;5091223;28;20197;-61
2022/04/22 04:01:32;;;;;;;1.90;1.10;;;;;;;19.37;54.83;98914.72;5091423;28;20511;-61
2022/04/22 04:03:57;;;;;;;1.90;1.20;;;;;;;19.37;55.10;98909.78;5091303;28;20473;-61
2022/04/22 04:06:23;;;;;;;1.93;1.23;;;;;;;19.37;55.21;98914.72;5090933;28;20421;-61
2022/04/22 04:15:57;;;;;;;2.40;1.20;;;;;;;19.36;54.86;98913.09;5091376;28;20181;-61
2022/04/22 04:17:04;;;;;;;2.00;1.50;;;;;;;19.36;55.25;98918.81;5091224;28;20797;-61
2022/04/22 04:25:01;;;;;;;1.97;1.10;;;;;;;19.34;54.86;98922.09;5079290;28;20416;-61
2022/04/22 04:27:26;;;;;;;3.10;1.60;;;;;;;19.34;55.18;98918.41;5082703;28;20425;-61
2022/04/22 04:29:51;;;;;;;1.87;1.27;;;;;;;19.34;55.05;98933.53;5094878;28;20236;-62
2022/04/22 04:32:17;;;;;;;2.47;1.53;;;;;;;19.35;55.07;98928.63;5094681;28;20174;-61
2022/04/22 04:34:44;;;;;;;2.07;1.20;;;;;;;19.36;55.03;98938.84;5094516;28;20194;-61
2022/04/22 04:37:10;;;;;;;1.77;1.03;;;;;;;19.36;54.96;98936.00;5095179;28;20232;-61
2022/04/22 04:39:36;;;;;;;2.73;1.47;;;;;;;19.35;54.95;98934.34;5094318;28;20416;-61
2022/04/22 04:42:02;;;;;;;2.23;1.53;;;;;;;19.34;54.90;98938.44;5094487;28;20469;-61
2022/04/22 04:44:28;;;;;;;2.73;1.43;;;;;;;19.34;55.14;98932.72;5094502;28;20469;-61
2022/04/22 04:46:54;;;;;;;4.40;1.40;;;;;;;19.35;55.26;98929.44;5094774;28;20483;-61
2022/04/22 04:49:19;;;;;;;2.43;1.50;;;;;;;19.35;54.94;98929.44;5094458;28;20175;-61
2022/04/22 04:51:45;;;;;;;2.30;1.30;;;;;;;19.34;54.89;98927.81;5094428;28;20193;-61
2022/04/22 04:54:10;;;;;;;2.17;1.30;;;;;;;19.34;54.92;98927.00;5090249;28;20213;-61
2022/04/22 04:56:36;;;;;;;2.10;1.33;;;;;;;19.34;55.30;98927.81;5091161;28;20248;-61
2022/04/22 04:59:01;;;;;;;3.47;1.50;;;;;;;19.34;55.11;98929.84;5094078;28;20223;-61
2022/04/22 05:01:26;;;;;;;1.90;1.20;;;;;;;19.33;55.22;98926.19;5094340;28;20170;-61
2022/04/22 05:03:52;;;;;;;1.83;1.23;;;;;;;19.33;55.34;98926.19;5094074;28;20170;-61
2022/04/22 05:06:17;;;;;;;2.80;1.47;;;;;;;19.34;55.20;98924.13;5094040;28;20174;-61
2022/04/22 05:08:43;;;;;;;1.67;1.00;;;;;;;19.33;55.18;98928.22;5093204;28;20229;-61
2022/04/22 05:11:08;;;;;;;2.40;1.47;;;;;;;19.33;54.96;98937.66;5093975;28;20192;-61
2022/04/22 05:13:34;;;;;;;2.07;1.13;;;;;;;19.32;55.00;98936.00;5093914;28;20162;-61
2022/04/22 05:15:59;;;;;;;2.37;1.47;;;;;;;19.33;54.96;98940.50;5093816;28;20194;-61
2022/04/22 05:18:24;;;;;;;3.70;1.70;;;;;;;19.34;55.12;98939.25;5093345;28;20173;-61
2022/04/22 05:20:50;;;;;;;2.60;1.50;;;;;;;19.33;55.03;98933.97;5082599;28;20229;-61
2022/04/22 05:23:15;;;;;;;2.27;1.37;;;;;;;19.32;54.90;98933.13;5074165;28;20191;-61
2022/04/22 05:25:41;;;;;;;2.47;1.30;;;;;;;19.33;54.91;98934.78;5093932;28;20162;-62
2022/04/22 05:28:07;;;;;;;2.13;1.30;;;;;;;19.33;55.25;98936.81;5093858;28;20181;-61
2022/04/22 05:33:16;;;;;;;2.23;1.47;;;;;;;19.33;55.07;98942.53;5073251;28;20714;-61
2022/04/22 05:35:42;;;;;;;2.00;1.30;;;;;;;19.34;54.96;98941.31;5073228;28;20457;-61
2022/04/22 05:38:08;;;;;;;2.40;1.60;;;;;;;19.35;55.32;98937.19;5075692;28;20175;-61
2022/04/22 05:40:37;;;;;;;1.90;1.20;;;;;;;19.34;55.03;98932.72;5073135;28;20470;-61
2022/04/22 05:43:04;;;;;;;2.30;1.43;;;;;;;19.34;54.93;98930.69;5073114;28;20191;-61
2022/04/22 05:45:29;;;;;;;2.50;1.47;;;;;;;19.34;54.84;98927.00;5073199;28;20939;-61
2022/04/22 05:47:56;;;;;;;2.93;1.70;;;;;;;19.34;55.32;98927.00;5072982;28;20463;-61
2022/04/22 05:50:22;;;;;;;2.50;1.30;;;;;;;19.33;55.24;98925.38;5077659;28;20265;-61
2022/04/22 05:52:47;;;;;;;2.30;1.40;;;;;;;19.34;54.95;98927.00;5093233;28;20424;-61
2022/04/22 05:55:16;;;;;;;2.00;1.20;;;;;;;19.34;55.13;98927.00;5092995;28;20293;-61
2022/04/22 05:57:42;;;;;;;3.40;1.87;;;;;;;19.34;54.99;98927.81;5093382;28;20170;-61
2022/04/22 06:00:09;;;;;;;1.90;1.10;;;;;;;19.35;54.75;98929.44;5092339;28;20934;-61
2022/04/22 06:02:34;;;;;;;2.43;1.50;;;;;;;19.35;54.99;98928.63;5093344;28;20188;-61
2022/04/22 06:05:00;;;;;;;1.90;1.50;;;;;;;19.34;55.15;98933.53;5092594;28;20786;-61
2022/04/22 06:07:25;;;;;;;2.20;1.53;;;;;;;19.34;55.41;98922.09;5092700;28;20218;-61
2022/04/22 06:12:34;;;;;;;2.00;1.27;;;;;;;19.34;54.77;98921.28;5093209;28;20223;-61
2022/04/22 06:15:01;;;;;;;1.80;1.23;;;;;;;19.34;55.10;98927.00;5092514;28;20452;-61
2022/04/22 06:17:28;;;;;;;2.33;1.40;;;;;;;19.33;55.06;98929.06;5092366;28;20201;-61
2022/04/22 06:19:53;;;;;;;2.03;1.33;;;;;;;19.34;54.89;98927.81;5092819;28;20774;-61
2022/04/22 06:22:19;;;;;;;2.33;1.43;;;;;;;19.34;55.04;98924.97;5092785;28;20412;-61
2022/04/22 06:24:44;;;;;;;4.10;1.70;;;;;;;19.35;55.34;98928.63;5079189;28;20205;-61
2022/04/22 06:27:10;;;;;;;2.00;1.30;;;;;;;19.35;54.96;98929.44;5072293;28;20228;-61
2022/04/22 06:29:36;;;;;;;2.07;1.40;;;;;;;19.33;55.07;98920.47;5072141;28;20204;-61
2022/04/22 06:32:02;;;;;;;2.30;1.30;;;;;;;19.34;55.24;98921.28;5072041;28;20179;-61
2022/04/22 06:34:28;;;;;;;2.23;1.47;;;;;;;19.34;54.97;98924.97;5084519;28;20413;-61
2022/04/22 06:36:53;;;;;;;2.10;1.30;;;;;;;19.35;54.97;98931.47;5092014;28;20412;-61
2022/04/22 06:39:19;;;;;;;2.20;1.57;;;;;;;19.34;54.92;98930.69;5090296;28;20265;-61
2022/04/22 06:47:13;;;;;;;2.40;1.57;;;;;;;19.35;54.94;98918.00;5090355;28;20431;-61
2022/04/22 06:49:38;;;;;;;2.40;1.30;;;;;;;19.34;55.43;98919.22;5090322;28;20508;-61
2022/04/22 06:52:06;;;;;;;2.10;1.40;;;;;;;19.34;55.38;98922.09;5090189;28;20190;-61
2022/04/22 06:54:32;;;;;;;2.20;1.40;;;;;;;19.32;54.89;98918.81;5080321;28;20190;-61
2022/04/22 06:56:59;;;;;;;2.60;1.60;;;;;;;19.34;55.65;98919.22;5074272;28;20444;-61
2022/04/22 06:59:24;;;;;;;2.53;1.50;;;;;;;19.34;55.38;98921.28;5086881;28;20424;-61
2022/04/22 07:01:50;;;;;;;2.20;1.50;;;;;;;19.33;55.23;98916.78;5080696;28;20788;-61
2022/04/22 07:04:16;;;;;;;2.13;1.37;;;;;;;19.34;55.13;98921.28;5071627;28;20155;-61
2022/04/22 07:06:42;;;;;;;3.50;1.70;;;;;;;19.34;54.81;98921.28;5071467;28;20223;-61
2022/04/22 07:09:09;;;;;;;2.37;1.40;;;;;;;19.35;55.05;98923.72;5071901;28;20198;-61
2022/04/22 07:11:35;;;;;;;3.03;1.77;;;;;;;19.36;54.93;98918.81;5071883;28;20497;-61
2022/04/22 07:14:01;;;;;;;2.50;1.33;;;;;;;19.35;54.95;98911.44;5071486;28;20447;-61
2022/04/22 07:16:27;;;;;;;2.03;1.30;;;;;;;19.34;55.45;98915.53;5087394;28;20549;-61
2022/04/22 07:18:52;;;;;;;2.80;1.70;;;;;;;19.34;55.06;98904.09;5091925;28;20235;-60
2022/04/22 07:21:18;;;;;;;2.33;1.70;;;;;;;19.34;55.06;98913.50;5091636;28;20162;-61
2022/04/22 07:23:44;;;;;;;1.97;1.30;;;;;;;19.35;54.89;98911.44;5088013;28;20222;-61
2022/04/22 07:26:09;;;;;;;2.60;1.50;;;;;;;19.34;55.12;98916.38;5091590;28;20611;-61
2022/04/22 07:28:35;;;;;;;2.10;1.37;;;;;;;19.35;55.09;98905.72;5091873;28;20178;-61
2022/04/22 07:31:01;;;;;;;2.20;1.60;;;;;;;19.35;55.16;98912.28;5071132;28;20585;-61
2022/04/22 07:33:27;;;;;;;2.60;1.33;;;;;;;19.37;54.98;98911.84;5054464;28;20421;-61
2022/04/22 07:35:52;;;;;;;3.33;1.93;;;;;;;19.33;54.96;98903.31;5069670;28;20198;-61
2022/04/22 07:38:18;;;;;;;2.67;1.63;;;;;;;19.34;55.02;98910.66;5070039;28;20537;-61
2022/04/22 07:40:48;;;;;;;3.00;1.60;;;;;;;19.35;55.01;98905.72;5073546;28;20638;-61
2022/04/22 07:48:42;;;;;;;3.43;1.83;;;;;;;19.34;55.03;98912.69;5056297;28;20424;-61
2022/04/22 07:51:07;;;;;;;2.10;1.60;;;;;;;19.36;55.18;98904.50;5071146;28;20409;-61
2022/04/22 07:53:35;;;;;;;2.50;1.50;;;;;;;19.36;55.03;98913.88;5083192;28;20177;-61
2022/04/22 07:56:04;;;;;;;2.63;1.50;;;;;;;19.36;55.23;98911.03;5095389;28;20210;-61
2022/04/22 07:58:31;;;;;;;4.43;1.50;;;;;;;19.35;54.45;98909.41;5095646;28;20455;-61
2022/04/22 08:00:56;;;;;;;2.10;1.33;;;;;;;19.36;55.15;98905.31;5094346;28;20408;-61
2022/04/22 08:03:22;;;;;;;2.30;1.30;;;;;;;19.36;55.17;98896.72;5094194;28;20409;-61
2022/04/22 08:05:47;;;;;;;2.17;1.47;;;;;;;19.36;54.94;98907.38;5093600;28;20535;-61
2022/04/22 08:08:13;;;;;;;2.27;1.30;;;;;;;19.37;54.75;98903.28;5093874;28;20225;-61
2022/04/22 08:10:38;;;;;;;2.27;1.47;;;;;;;19.36;55.02;98902.44;5093474;28;20250;-62
2022/04/22 08:13:07;;;;;;;2.47;1.60;;;;;;;19.35;55.02;98895.09;5093709;28;20170;-61
2022/04/22 08:15:35;;;;;;;1.93;1.33;;;;;;;19.36;54.96;98893.06;5093455;28;20225;-61
2022/04/22 08:18:02;;;;;;;2.23;1.30;;;;;;;19.37;54.67;98904.06;5095433;28;20413;-61
2022/04/22 08:20:30;;;;;;;2.70;1.67;;;;;;;19.37;55.23;98889.75;5094910;28;20520;-61
2022/04/22 08:22:56;;;;;;;2.53;1.63;;;;;;;19.36;54.80;98890.19;5095111;28;20469;-61
2022/04/22 08:25:23;;;;;;;2.83;1.47;;;;;;;19.37;54.92;98886.91;5095018;28;20413;-61
2022/04/22 08:27:50;;;;;;;2.00;1.40;;;;;;;19.37;54.97;98892.63;5094977;28;20392;-61
2022/04/22 08:30:15;;;;;;;2.33;1.63;;;;;;;19.38;55.15;98888.53;5094368;28;20922;-61
2022/04/22 08:32:40;;;;;;;2.17;1.53;;;;;;;19.38;54.52;98888.53;5093572;28;20420;-61
2022/04/22 08:35:08;;;;;;;2.33;1.40;;;;;;;19.37;54.99;98881.16;5093897;28;20193;-61
2022/04/22 08:37:33;;;;;;;2.30;1.60;;;;;;;19.37;54.74;98880.38;5094959;28;20175;-61
2022/04/22 08:39:59;;;;;;;2.33;1.60;;;;;;;19.36;54.90;98887.34;5093952;28;20926;-61
2022/04/22 08:42:25;;;;;;;3.40;1.50;;;;;;;19.37;54.90;98874.66;5076721;28;20170;-61
2022/04/22 08:44:53;;;;;;;3.67;1.90;;;;;;;19.38;55.05;98874.25;5076461;28;20174;-61
2022/04/22 08:50:09;;;;;;;2.60;1.37;;;;;;;19.38;54.99;98864.81;5078814;28;20550;-61
2022/04/22 08:52:35;;;;;;;2.43;1.50;;;;;;;19.36;54.77;98862.38;5094490;28;20428;-61
2022/04/22 08:55:02;;;;;;;2.00;1.50;;;;;;;19.37;54.89;98863.22;5094128;28;20795;-61
2022/04/22 08:57:30;;;;;;;2.67;1.40;;;;;;;19.37;54.70;98861.13;5092630;28;20299;-61
2022/04/22 09:00:00;;;;;;;2.40;1.60;;;;;;;19.36;54.85;98856.66;5072623;28;20456;-61
2022/04/22 09:02:26;;;;;;;2.27;1.33;;;;;;;19.36;54.84;98858.72;5076280;28;20939;-60
2022/04/22 09:04:51;;;;;;;1.93;1.20;;;;;;;19.37;54.89;98860.34;5090207;28;20398;-61
2022/04/22 09:07:18;;;;;;;2.57;1.83;;;;;;;19.37;54.86;98858.28;5093478;28;20218;-61
2022/04/22 09:09:49;;;;;;;2.33;1.50;;;;;;;19.36;54.64;98856.66;5093956;28;20167;-61
2022/04/22 09:12:19;;;;;;;1.87;1.10;;;;;;;19.36;55.00;98847.28;5094307;28;20809;-61
2022/04/22 09:14:57;;;;;;;2.20;1.57;;;;;;;19.37;55.00;98857.47;5094235;28;20420;-61
2022/04/22 09:17:27;;;;;;;2.47;1.73;;;;;;;19.37;55.08;98852.56;5093707;28;20425;-61
2022/04/22 09:19:53;;;;;;;2.17;1.67;;;;;;;19.37;54.75;98849.69;5093721;28;20409;-60
2022/04/22 09:22:20;;;;;;;2.93;1.73;;;;;;;19.37;54.96;98840.31;5094165;28;20409;-60
2022/04/22 09:24:47;;;;;;;2.70;1.63;;;;;;;19.37;55.00;98846.81;5082402;28;20421;-60
2022/04/22 09:27:13;;;;;;;2.20;1.40;;;;;;;19.38;54.87;98841.94;5092431;28;20409;-61
2022/04/22 09:30:07;;;;;;;2.00;1.30;;;;;;;19.35;55.16;98837.88;5089123;28;20408;-61
2022/04/22 09:32:34;;;;;;;2.37;1.47;;;;;;;19.37;54.90;98828.88;5070847;28;20260;-61
2022/04/22 09:35:12;;;;;;;2.63;1.30;;;;;;;19.37;54.87;98823.13;5091774;28;20444;-61
2022/04/22 09:43:42;;;;;;;2.33;1.37;;;;;;;19.39;55.22;98826.38;5073489;28;20447;-61
2022/04/22 09:46:19;;;;;;;3.17;1.47;;;;;;;19.37;55.08;98821.06;5073158;28;20425;-61
2022/04/22 09:48:44;;;;;;;2.20;1.33;;;;;;;19.37;54.99;98823.13;5056915;28;20507;-61
2022/04/22 09:51:32;;;;;;;2.37;1.53;;;;;;;19.38;55.25;98819.03;5073208;28;20467;-61
2022/04/22 09:53:59;;;;;;;2.30;1.20;;;;;;;19.36;54.93;98819.44;5090495;28;20193;-61
2022/04/22 09:56:24;;;;;;;3.03;1.70;;;;;;;19.37;54.92;98809.63;5090920;28;20448;-61
2022/04/22 09:58:50;;;;;;;2.40;1.60;;;;;;;19.36;54.92;98805.16;5092729;28;20494;-61
2022/04/22 10:01:16;;;;;;;2.90;1.70;;;;;;;19.37;54.94;98805.97;5093055;28;20188;-61
2022/04/22 10:03:42;;;;;;;2.80;1.70;;;;;;;19.37;54.93;98791.66;5093086;28;20155;-61
2022/04/22 10:06:07;;;;;;;1.93;1.20;;;;;;;19.38;54.85;98796.97;5092656;28;20421;-61
2022/04/22 10:08:36;;;;;;;2.10;1.53;;;;;;;19.38;54.73;98796.97;5093018;28;20598;-61
2022/04/22 10:11:06;;;;;;;2.30;1.30;;;;;;;19.37;54.97;98798.19;5093178;28;20240;-61
2022/04/22 10:13:41;;;;;;;2.67;1.70;;;;;;;19.38;55.08;98785.53;5092999;28;20400;-61
2022/04/22 10:16:09;;;;;;;3.70;1.70;;;;;;;19.39;54.88;98794.91;5091888;28;20523;-61
2022/04/22 10:18:35;;;;;;;2.83;1.57;;;;;;;19.37;54.93;98781.00;5071307;28;20832;-61
2022/04/22 10:21:01;;;;;;;2.60;1.40;;;;;;;19.38;54.70;98778.97;5071309;28;20417;-61
2022/04/22 10:23:27;;;;;;;2.80;1.53;;;;;;;19.37;55.00;98781.00;5073340;28;20250;-61
2022/04/22 10:25:52;;;;;;;3.57;1.73;;;;;;;19.38;54.81;98784.69;5073274;28;20478;-61
2022/04/22 10:28:18;;;;;;;2.30;1.40;;;;;;;19.39;54.96;98778.56;5091167;28;20182;-62
2022/04/22 10:30:43;;;;;;;2.70;1.70;;;;;;;19.38;54.69;98782.66;5091354;28;20175;-61
2022/04/22 10:33:12;;;;;;;2.90;1.63;;;;;;;19.37;54.81;98772.41;5092117;28;20179;-61
2022/04/22 10:35:41;;;;;;;2.70;1.40;;;;;;;19.39;54.86;98780.59;5091905;28;20201;-61
2022/04/22 10:38:37;;;;;;;3.20;1.73;;;;;;;19.38;54.88;98773.25;5084237;28;20773;-61
2022/04/22 10:41:05;;;;;;;3.50;1.50;;;;;;;19.37;54.81;98775.28;5072170;28;20412;-61
2022/04/22 10:43:31;;;;;;;3.83;1.70;;;;;;;19.39;54.89;98772.81;5071731;28;20428;-61
2022/04/22 10:48:40;;;;;;;2.87;1.67;;;;;;;19.38;54.82;98768.34;5041551;28;20177;-61
2022/04/22 10:51:08;;;;;;;3.80;1.77;;;;;;;19.41;54.83;98760.97;5075930;28;20417;-61
2022/04/22 10:53:46;;;;;;;2.40;1.67;;;;;;;19.39;54.83;98754.84;5075095;28;20200;-61
2022/04/22 10:56:30;;;;;;;2.77;1.40;;;;;;;19.39;54.77;98758.53;5092006;28;20441;-61
2022/04/22 10:59:20;;;;;;;3.03;1.77;;;;;;;19.38;55.00;98750.34;5092155;28;20490;-61
2022/04/22 11:01:49;;;;;;;2.20;1.60;;;;;;;19.38;55.02;98748.31;5089357;28;20404;-61
2022/04/22 11:04:26;;;;;;;2.77;1.70;;;;;;;19.39;54.76;98752.78;5091303;28;20421;-61
2022/04/22 11:06:52;;;;;;;2.47;1.40;;;;;;;19.38;55.09;98744.63;5091933;28;20456;-61
2022/04/22 11:09:25;;;;;;;2.10;1.47;;;;;;;19.40;54.82;98756.44;5091939;28;20405;-61
2022/04/22 11:11:51;;;;;;;4.80;1.80;;;;;;;19.39;55.29;98738.50;5092131;28;20165;-61
2022/04/22 11:14:20;;;;;;;2.50;1.63;;;;;;;19.39;54.85;98740.53;5091897;28;20784;-61
2022/04/22 11:16:46;;;;;;;2.53;1.57;;;;;;;19.40;54.72;98733.56;5091726;28;20552;-60
2022/04/22 11:19:17;;;;;;;2.10;1.57;;;;;;;19.39;54.77;98724.19;5074187;28;20416;-60
2022/04/22 11:21:43;;;;;;;2.50;1.40;;;;;;;19.40;54.91;98730.69;5090059;28;20237;-61
2022/04/22 11:24:09;;;;;;;2.07;1.30;;;;;;;19.41;54.84;98735.22;5081056;28;20511;-60
2022/04/22 11:26:35;;;;;;;4.17;1.63;;;;;;;19.40;54.76;98731.53;5091531;28;20175;-60
2022/04/22 11:29:00;;;;;;;2.17;1.67;;;;;;;19.40;54.87;98731.53;5091486;28;20416;-60
2022/04/22 11:31:26;;;;;;;2.40;1.67;;;;;;;19.40;54.67;98731.53;5055400;28;20182;-61
2022/04/22 11:33:56;;;;;;;3.37;1.50;;;;;;;19.42;54.68;98728.25;5055484;28;20685;-61
2022/04/22 11:36:23;;;;;;;2.60;1.70;;;;;;;19.41;54.82;98727.41;5087056;28;20463;-61
2022/04/22 11:38:50;;;;;;;2.23;1.43;;;;;;;19.40;54.87;98725.78;5090016;28;20773;-60
2022/04/22 11:41:16;;;;;;;2.80;1.60;;;;;;;19.40;54.94;98725.78;5091437;28;20408;-60
2022/04/22 11:43:41;;;;;;;2.70;1.90;;;;;;;19.41;54.82;98721.69;5091388;28;20460;-61
2022/04/22 11:46:07;;;;;;;3.13;1.60;;;;;;;19.42;54.86;98723.31;5091629;28;20731;-61
2022/04/22 11:48:32;;;;;;;2.60;1.90;;;;;;;19.42;54.83;98717.59;5084751;28;20225;-60
2022/04/22 11:51:01;;;;;;;2.53;1.33;;;;;;;19.42;54.81;98706.13;5071629;28;20191;-60
2022/04/22 11:53:29;;;;;;;2.57;1.63;;;;;;;19.44;54.76;98720.84;5073881;28;20736;-60
2022/04/22 11:55:54;;;;;;;3.47;1.90;;;;;;;19.45;54.88;98713.06;5091395;28;20456;-60
2022/04/22 11:58:20;;;;;;;2.90;1.97;;;;;;;19.45;54.75;98710.19;5091290;28;20451;-60
2022/04/22 12:06:18;;;;;;;2.73;1.73;;;;;;;19.48;54.49;98700.78;5091766;28;20753;-61
2022/04/22 12:08:56;;;;;;;2.80;1.77;;;;;;;19.47;54.92;98710.59;5072821;28;20464;-61
2022/04/22 12:11:22;;;;;;;3.33;1.60;;;;;;;19.49;54.76;98705.25;5091363;28;20183;-61
2022/04/22 12:13:48;;;;;;;3.33;1.60;;;;;;;19.49;54.70;98706.06;5091404;28;20424;-61
2022/04/22 12:16:32;;;;;;;3.50;1.50;;;;;;;19.50;54.53;98701.97;5091370;28;20455;-61
2022/04/22 12:19:00;;;;;;;3.20;2.07;;;;;;;19.50;54.65;98693.38;5091701;28;20507;-61
2022/04/22 12:21:25;;;;;;;4.10;1.57;;;;;;;19.52;54.45;98698.69;5073306;28;20737;-60
2022/04/22 12:23:51;;;;;;;5.63;1.60;;;;;;;19.54;54.50;98705.63;5085400;28;20459;-60
2022/04/22 12:26:27;;;;;;;3.10;1.80;;;;;;;19.54;54.84;98691.28;5071327;28;20229;-60
2022/04/22 12:29:11;;;;;;;2.63;1.77;;;;;;;19.55;54.41;98692.09;5062314;28;20996;-61
2022/04/22 12:31:43;;;;;;;2.47;1.63;;;;;;;19.56;54.41;98688.81;5091220;28;20420;-61
2022/04/22 12:34:10;;;;;;;2.70;1.90;;;;;;;19.53;54.51;98688.84;5091025;28;20424;-61
2022/04/22 12:36:51;;;;;;;3.73;1.80;;;;;;;19.58;54.75;98688.38;5073548;28;20827;-62